WetterOnline ( http://www.wetteronline.de )

Wetter aktuell Sylt

Aktuelles Wetter: List/Sylt (29m)

6-stündlich | Neueste Meldungen
Ortszeit Temperatur Wetter
Sa, 24.02. 19:00 -1.1° C leicht bewölkt
Sa, 24.02. 13:00 1.7° C wolkig
Sa, 24.02. 7:00 -0.4° C bedeckt
Sa, 24.02. 1:00 -1.1° C fast wolkenlos
Fr, 23.02. 19:00 -0.1° C wolkenlos
Fr, 23.02. 13:00 2.0° C wolkig
Fr, 23.02. 7:00 -0.8° C leicht bewölkt
Fr, 23.02. 1:00 -1.2° C wolkenlos
Ortszeit Temperatur Wetter
Sa, 24.02. 23:00 -2.3° C bedeckt
Sa, 24.02. 22:40 -2.2° C bedeckt
Sa, 24.02. 22:30 -2.1° C wolkig
Sa, 24.02. 22:20 -2.1° C wolkig
Sa, 24.02. 22:10 -2.0° C wolkig
Sa, 24.02. 22:00 -1.8° C leicht bewölkt
Sa, 24.02. 21:50 -1.8° C leicht bewölkt
Sa, 24.02. 21:30 -2.1° C wolkenlos
Sa, 24.02. 21:00 -1.7° C leicht bewölkt
Sa, 24.02. 20:30 -1.7° C wolkenlos
Sa, 24.02. 20:00 -1.4° C wolkenlos
Sa, 24.02. 19:30 -1.3° C wolkenlos
Ortszeit Relative Feuchte Sichtweite
Sa, 24.02. 19:00 59% 60 km
Sa, 24.02. 13:00 61% 13 km
Sa, 24.02. 7:00 80% 18 km
Sa, 24.02. 1:00 83% 18 km
Fr, 23.02. 19:00 73% 30 km
Fr, 23.02. 13:00 72% 10 km
Fr, 23.02. 7:00 85% 11 km
Fr, 23.02. 1:00 92% 5.0 km
Ortszeit Relative Feuchte Sichtweite
Sa, 24.02. 23:00 70% 45 km
Sa, 24.02. 22:40 70% -
Sa, 24.02. 22:30 68% 50 km
Sa, 24.02. 22:20 68% -
Sa, 24.02. 22:10 68% -
Sa, 24.02. 22:00 66% 50 km
Sa, 24.02. 21:50 66% -
Sa, 24.02. 21:30 66% 50 km
Sa, 24.02. 21:00 62% 55 km
Sa, 24.02. 20:30 63% 55 km
Sa, 24.02. 20:00 63% 55 km
Sa, 24.02. 19:30 61% 55 km
Ortszeit Niederschlagsmenge Niederschlagsart
Sa, 24.02. 19:00 0.0 l/m2 in 12 Std. -
Sa, 24.02. 13:00 0.0 l/m2 in 6 Std. -
Sa, 24.02. 7:00 0.0 l/m2 in 12 Std. -
Sa, 24.02. 1:00 0.0 l/m2 in 6 Std. -
Fr, 23.02. 19:00 0.0 l/m2 in 12 Std. -
Fr, 23.02. 13:00 0.0 l/m2 in 6 Std. -
Fr, 23.02. 7:00 0.0 l/m2 in 12 Std. -
Fr, 23.02. 1:00 0.0 l/m2 in 6 Std. -
Ortszeit Niederschlagsmenge Niederschlagsart
Sa, 24.02. 23:00 0.0 l/m2 in 1 Std. -
Sa, 24.02. 22:40 keine Meldung -
Sa, 24.02. 22:30 0.0 l/m2 in 1 Std. -
Sa, 24.02. 22:20 keine Meldung -
Sa, 24.02. 22:10 keine Meldung -
Sa, 24.02. 22:00 0.0 l/m2 in 1 Std. -
Sa, 24.02. 21:50 keine Meldung -
Sa, 24.02. 21:30 0.0 l/m2 in 1 Std. -
Sa, 24.02. 21:00 0.0 l/m2 in 1 Std. -
Sa, 24.02. 20:30 0.0 l/m2 in 1 Std. -
Sa, 24.02. 20:00 0.0 l/m2 in 1 Std. -
Sa, 24.02. 19:30 0.0 l/m2 in 1 Std. -
Ortszeit Stärke Spitze Richtung
km/h Bft. km/h Grad Sektor
Sa, 24.02. 19:00 26 4 43 100° O
Sa, 24.02. 13:00 26 4 48 90° O
Sa, 24.02. 7:00 20 4 39 80° O
Sa, 24.02. 1:00 13 3 22 100° O
Fr, 23.02. 19:00 15 3 28 100° O
Fr, 23.02. 13:00 9 2 22 130° SO
Fr, 23.02. 7:00 18 3 25 100° O
Fr, 23.02. 1:00 17 3 22 90° O
Ortszeit Stärke Spitze Richtung
km/h Bft. km/h Grad Sektor
Sa, 24.02. 23:00 18 3 32 80° O
Sa, 24.02. 22:40 20 4 - 80° O
Sa, 24.02. 22:30 22 4 32 80° O
Sa, 24.02. 22:20 22 4 - 80° O
Sa, 24.02. 22:10 22 4 - 80° O
Sa, 24.02. 22:00 20 4 30 80° O
Sa, 24.02. 21:50 20 4 - 80° O
Sa, 24.02. 21:30 20 4 30 80° O
Sa, 24.02. 21:00 22 4 32 90° O
Sa, 24.02. 20:30 22 4 32 90° O
Sa, 24.02. 20:00 22 4 39 90° O
Sa, 24.02. 19:30 25 4 40 90° O
Ortszeit Untergrenze Bedeckung Gattung
total tief tief mittel hoch
Sa, 24.02. 19:00 5700 m 3/8 3/8 - - -
Sa, 24.02. 13:00 780 m 6/8 4/8 - - -
Sa, 24.02. 7:00 420 m 8/8 8/8 - - -
Sa, 24.02. 1:00 9000 m 2/8 0/8 - - -
Fr, 23.02. 19:00 - 0/8 0/8 - - -
Fr, 23.02. 13:00 6000 m 5/8 5/8 - - -
Fr, 23.02. 7:00 7500 m 4/8 0/8 - - -
Fr, 23.02. 1:00 - 0/8 0/8 - - -
Ortszeit Bedeckungsgrad in Achtel und Wolkenuntergrenze
Sa, 24.02. 23:00 8(4200m) 8(5400m) 8(5700m)
Sa, 24.02. 22:40 8(4200m) 8(5400m)
Sa, 24.02. 22:30 1(1050m) 8(5400m) 8(6300m)
Sa, 24.02. 22:20 1(1050m) 8(5400m) 8(6300m)
Sa, 24.02. 22:10 1(1140m) 7(5400m) 7(6300m)
Sa, 24.02. 22:00 1(4200m) 5(5400m) 5(6300m)
Sa, 24.02. 21:50 1(4200m) 2(5700m)
Sa, 24.02. 21:30 keine Wolken
Sa, 24.02. 21:00 3(5400m)
Sa, 24.02. 20:30 keine Wolken
Sa, 24.02. 20:00 keine Wolken
Sa, 24.02. 19:30 keine Wolken
Ortszeit Luftdruck NN (hPa) Tendenz (hPa in 3 Std.)
Sa, 24.02. 19:00 1035 + 0,5
Sa, 24.02. 13:00 1034 + 0,7
Sa, 24.02. 7:00 1033 + 1,5
Sa, 24.02. 1:00 1031 + 0,8
Fr, 23.02. 19:00 1029 + 0,7
Fr, 23.02. 13:00 1029 + 0,1
Fr, 23.02. 7:00 1028 + 0,1
Fr, 23.02. 1:00 1029 + 0,2
Ortszeit Luftdruck NN (hPa) Tendenz (hPa in 3 Std.)
Sa, 24.02. 23:00 1036 + 0,5
Sa, 24.02. 22:40 1036 keine Meldung
Sa, 24.02. 22:30 1036 + 0,5
Sa, 24.02. 22:20 1036 keine Meldung
Sa, 24.02. 22:10 1036 keine Meldung
Sa, 24.02. 22:00 1036 + 0,6
Sa, 24.02. 21:50 1036 keine Meldung
Sa, 24.02. 21:30 1035 + 0,5
Sa, 24.02. 21:00 1035 + 0,7
Sa, 24.02. 20:30 1035 + 0,9
Sa, 24.02. 20:00 1035 + 0,8
Sa, 24.02. 19:30 1035 + 0,6
Ortszeit Schneehöhe (cm)
Sa, 24.02. 19:00 -
Sa, 24.02. 13:00 0
Sa, 24.02. 7:00 0
Sa, 24.02. 1:00 -
Fr, 23.02. 19:00 0
Fr, 23.02. 13:00 0
Fr, 23.02. 7:00 -
Fr, 23.02. 1:00 -
Ortszeit Schneehöhe (cm)
Sa, 24.02. 23:00 -
Sa, 24.02. 22:40 -
Sa, 24.02. 22:30 0
Sa, 24.02. 22:20 -
Sa, 24.02. 22:10 -
Sa, 24.02. 22:00 0
Sa, 24.02. 21:50 -
Sa, 24.02. 21:30 0
Sa, 24.02. 21:00 0
Sa, 24.02. 20:30 0
Sa, 24.02. 20:00 0
Sa, 24.02. 19:30 0
Link zu dieser Seite / Seite empfehlen

Das Wetter in ...